Time;durP1;ratioP1;P1;durP2;ratioP2;P2;SDS_P1;SDS_P2;PMS_P1;PMS_P2;Temp;Humidity;BMP_temperature;BMP_pressure;BME280_temperature;BME280_humidity;BME280_pressure;Samples;Min_cycle;Max_cycle;Signal;HPM_P1;HPM_P2
2023/03/29 00:01:20;;;;;;;0.70;0.70;;;-1.60;99.90;;;;;;5094126;28;20204;-68
2023/03/29 00:03:46;;;;;;;0.70;0.70;;;-1.60;99.90;;;;;;5093783;28;20586;-67
2023/03/29 00:06:20;;;;;;;0.70;0.70;;;-1.60;99.90;;;;;;5094237;28;20261;-68
2023/03/29 00:08:52;;;;;;;0.63;0.63;;;-1.50;99.90;;;;;;5094368;28;20187;-67
2023/03/29 00:11:20;;;;;;;0.60;0.60;;;-1.50;99.90;;;;;;5093843;28;20216;-68
2023/03/29 00:13:46;;;;;;;0.55;0.55;;;-1.50;99.90;;;;;;5094048;28;20287;-67
2023/03/29 00:16:12;;;;;;;0.70;0.70;;;-1.50;99.90;;;;;;5076066;28;20303;-67
2023/03/29 00:18:38;;;;;;;0.70;0.70;;;-1.40;99.90;;;;;;5094115;28;20200;-68
2023/03/29 00:21:04;;;;;;;0.70;0.70;;;-1.40;99.90;;;;;;5093454;28;20223;-67
2023/03/29 00:23:31;;;;;;;0.70;0.70;;;-1.40;99.90;;;;;;5093698;28;20701;-68
2023/03/29 00:25:57;;;;;;;0.70;0.70;;;-1.40;99.90;;;;;;5093732;28;20236;-68
2023/03/29 00:28:24;;;;;;;0.70;0.70;;;-1.40;99.90;;;;;;5093638;28;20192;-67
2023/03/29 00:30:50;;;;;;;0.70;0.70;;;-1.40;99.90;;;;;;5094328;28;20184;-67
2023/03/29 00:33:20;;;;;;;0.80;0.80;;;-1.40;99.90;;;;;;5093733;28;20184;-68
2023/03/29 00:35:52;;;;;;;0.70;0.70;;;-1.40;99.90;;;;;;5093752;28;20195;-68
2023/03/29 00:38:20;;;;;;;0.60;0.60;;;-1.40;99.90;;;;;;5093877;28;20184;-68
2023/03/29 00:40:47;;;;;;;0.50;0.50;;;-1.40;99.90;;;;;;5093775;28;20184;-68
2023/03/29 00:43:14;;;;;;;0.60;0.60;;;-1.40;99.90;;;;;;5093659;28;20195;-68
2023/03/29 00:45:41;;;;;;;0.70;0.70;;;-1.40;99.90;;;;;;5093197;28;20278;-68
2023/03/29 00:48:14;;;;;;;0.70;0.70;;;-1.40;99.90;;;;;;5075915;28;20542;-68
2023/03/29 00:50:42;;;;;;;0.82;0.82;;;-1.40;99.90;;;;;;5075546;28;20907;-69
2023/03/29 00:53:18;;;;;;;0.60;0.60;;;-1.40;99.90;;;;;;5075533;28;20219;-68
2023/03/29 00:55:51;;;;;;;0.60;0.60;;;-1.50;99.90;;;;;;5093271;28;20195;-68
2023/03/29 00:58:23;;;;;;;0.80;0.80;;;-1.50;99.90;;;;;;5093280;28;20188;-69
2023/03/29 01:01:10;;;;;;;0.70;0.70;;;-1.50;99.90;;;;;;5075631;28;20223;-73
2023/03/29 01:03:52;;;;;;;0.63;0.63;;;-1.50;99.90;;;;;;5088742;22;20254;-68
2023/03/29 01:06:23;;;;;;;0.70;0.70;;;-1.60;99.90;;;;;;5072525;28;20239;-68
2023/03/29 01:08:56;;;;;;;0.60;0.60;;;-1.60;99.90;;;;;;5072635;28;20651;-68
2023/03/29 01:11:36;;;;;;;1.25;1.10;;;-1.60;99.90;;;;;;5088351;28;20651;-68
2023/03/29 01:14:17;;;;;;;0.70;0.70;;;-1.60;99.90;;;;;;5074420;28;20206;-68
2023/03/29 01:16:44;;;;;;;0.60;0.60;;;-1.50;99.90;;;;;;5092682;28;20734;-68
2023/03/29 01:19:14;;;;;;;0.68;0.68;;;-1.60;99.90;;;;;;5092659;28;20314;-68
2023/03/29 01:21:51;;;;;;;0.73;0.73;;;-1.50;99.90;;;;;;5092402;28;20207;-69
2023/03/29 01:24:36;;;;;;;0.82;0.82;;;-1.50;99.90;;;;;;5092535;28;20199;-68
2023/03/29 01:27:08;;;;;;;0.57;0.57;;;-1.50;99.90;;;;;;5072352;28;20270;-68
2023/03/29 01:29:42;;;;;;;0.70;0.70;;;-1.50;99.90;;;;;;5072225;28;20704;-68
2023/03/29 01:32:16;;;;;;;0.70;0.70;;;-1.50;99.90;;;;;;5072364;28;20227;-68
2023/03/29 01:34:57;;;;;;;0.68;0.68;;;-1.50;99.90;;;;;;5072210;28;20197;-68
2023/03/29 01:37:36;;;;;;;0.60;0.60;;;-1.50;99.90;;;;;;5072052;28;20195;-68
2023/03/29 01:40:04;;;;;;;0.57;0.57;;;-1.50;99.90;;;;;;5072365;28;20242;-68
2023/03/29 01:42:49;;;;;;;0.60;0.60;;;-1.50;99.90;;;;;;5072104;28;20199;-69
2023/03/29 01:45:14;;;;;;;0.60;0.60;;;-1.50;99.90;;;;;;5072174;28;20192;-69
2023/03/29 01:48:05;;;;;;;0.50;0.50;;;-1.50;99.90;;;;;;5071955;28;20212;-69
2023/03/29 01:50:40;;;;;;;0.60;0.60;;;-1.50;99.90;;;;;;5072005;28;20253;-69
2023/03/29 01:53:12;;;;;;;0.60;0.60;;;-1.50;99.90;;;;;;5092249;28;20195;-69
2023/03/29 01:55:42;;;;;;;0.60;0.60;;;-1.50;99.90;;;;;;5074409;28;20241;-69
2023/03/29 01:58:11;;;;;;;0.65;0.65;;;-1.50;99.90;;;;;;5074754;28;20211;-68
2023/03/29 02:00:38;;;;;;;0.60;0.60;;;-1.50;99.90;;;;;;5096338;28;20684;-69
2023/03/29 02:03:08;;;;;;;0.60;0.60;;;-1.50;99.90;;;;;;5093827;28;20743;-68
2023/03/29 02:05:35;;;;;;;0.75;0.75;;;-1.50;99.90;;;;;;5112642;28;20279;-69
2023/03/29 02:08:04;;;;;;;0.70;0.70;;;-1.50;99.90;;;;;;5112973;28;20581;-69
2023/03/29 02:10:31;;;;;;;0.70;0.70;;;-1.50;99.90;;;;;;5103817;28;20200;-68
2023/03/29 02:12:57;;;;;;;0.60;0.60;;;-1.40;99.90;;;;;;5092826;28;20644;-69
2023/03/29 02:15:23;;;;;;;0.80;0.80;;;-1.50;99.90;;;;;;5092399;28;20216;-69
2023/03/29 02:17:49;;;;;;;0.65;0.65;;;-1.40;99.90;;;;;;5092763;28;20197;-68
2023/03/29 02:20:37;;;;;;;0.70;0.70;;;-1.50;99.90;;;;;;5074455;28;20569;-69
2023/03/29 02:23:17;;;;;;;0.70;0.70;;;-1.50;99.90;;;;;;5094194;28;20192;-69
2023/03/29 02:25:44;;;;;;;0.70;0.70;;;-1.40;99.90;;;;;;5074610;28;20204;-69
2023/03/29 02:28:11;;;;;;;0.60;0.60;;;-1.40;99.90;;;;;;5058119;28;20200;-69
2023/03/29 02:31:04;;;;;;;0.60;0.60;;;-1.40;99.90;;;;;;5057922;28;20196;-69
2023/03/29 02:33:52;;;;;;;0.70;0.70;;;-1.30;99.90;;;;;;5075746;28;20212;-69
2023/03/29 02:36:27;;;;;;;0.60;0.60;;;-1.40;99.90;;;;;;5075903;28;20189;-69
2023/03/29 02:38:53;;;;;;;0.70;0.70;;;-1.40;99.90;;;;;;5075977;28;20203;-69
2023/03/29 02:41:20;;;;;;;0.50;0.50;;;-1.40;99.90;;;;;;5075734;28;20189;-70
2023/03/29 02:43:47;;;;;;;0.60;0.60;;;-1.40;99.90;;;;;;5057902;28;20201;-69
2023/03/29 02:46:15;;;;;;;0.70;0.70;;;-1.40;99.90;;;;;;5057671;28;20232;-69
2023/03/29 02:48:42;;;;;;;0.70;0.70;;;-1.40;99.90;;;;;;5089625;28;20241;-70
2023/03/29 02:51:15;;;;;;;0.60;0.60;;;-1.50;99.90;;;;;;5095696;28;20701;-69
2023/03/29 02:54:00;;;;;;;0.60;0.60;;;-1.50;99.90;;;;;;5077466;28;20218;-69
2023/03/29 02:56:26;;;;;;;0.68;0.68;;;-1.60;99.90;;;;;;5095568;28;20603;-69
2023/03/29 02:58:52;;;;;;;0.50;0.50;;;-1.60;99.90;;;;;;5077656;28;20192;-70
2023/03/29 03:01:19;;;;;;;0.60;0.60;;;-1.50;99.90;;;;;;5094770;28;20200;-69
2023/03/29 03:03:46;;;;;;;0.65;0.65;;;-1.50;99.90;;;;;;5095173;28;20227;-69
2023/03/29 03:06:13;;;;;;;0.60;0.60;;;-1.50;99.90;;;;;;5095525;28;20211;-69
2023/03/29 03:08:38;;;;;;;0.70;0.70;;;-1.40;99.90;;;;;;5095421;28;20192;-69
2023/03/29 03:11:05;;;;;;;0.70;0.70;;;-1.50;99.90;;;;;;5077290;28;20176;-69
2023/03/29 03:13:31;;;;;;;0.60;0.60;;;-1.50;99.90;;;;;;5095015;28;20196;-70
2023/03/29 03:15:57;;;;;;;0.73;0.73;;;-1.60;99.90;;;;;;5095599;28;20677;-70
2023/03/29 03:18:23;;;;;;;0.70;0.70;;;-1.60;99.90;;;;;;5094558;28;20189;-72
2023/03/29 03:20:56;;;;;;;0.60;0.60;;;-1.70;99.90;;;;;;5095461;28;20249;-70
2023/03/29 03:23:23;;;;;;;0.60;0.60;;;-1.70;99.90;;;;;;5094963;28;20654;-70
2023/03/29 03:25:49;;;;;;;0.57;0.57;;;-1.70;99.90;;;;;;5073520;28;20259;-69
2023/03/29 03:28:15;;;;;;;0.60;0.60;;;-1.70;99.90;;;;;;5074993;28;20192;-70
2023/03/29 03:30:41;;;;;;;0.80;0.80;;;-1.70;99.90;;;;;;5074827;28;20199;-70
2023/03/29 03:33:07;;;;;;;0.55;0.55;;;-1.80;99.90;;;;;;5074744;28;20189;-70
2023/03/29 03:35:33;;;;;;;0.80;0.80;;;-1.80;99.90;;;;;;5073686;28;20581;-73
2023/03/29 03:37:59;;;;;;;0.70;0.70;;;-1.80;99.90;;;;;;5074773;28;20223;-69
2023/03/29 03:40:25;;;;;;;0.68;0.68;;;-1.90;99.90;;;;;;5056570;28;20246;-74
2023/03/29 03:42:50;;;;;;;0.60;0.60;;;-1.90;99.90;;;;;;5073582;28;20229;-71
2023/03/29 03:45:16;;;;;;;0.80;0.80;;;-1.90;99.90;;;;;;5091499;28;20207;-73
2023/03/29 03:47:42;;;;;;;0.70;0.70;;;-1.90;99.90;;;;;;5094468;28;20738;-72
2023/03/29 03:50:08;;;;;;;0.60;0.60;;;-1.90;99.90;;;;;;5094750;28;20195;-73
2023/03/29 03:52:33;;;;;;;0.52;0.52;;;-1.90;99.90;;;;;;5094578;28;20188;-72
2023/03/29 03:55:01;;;;;;;0.60;0.60;;;-2.00;99.90;;;;;;5094680;28;20681;-72
2023/03/29 03:57:27;;;;;;;0.70;0.70;;;-2.00;99.90;;;;;;5075576;28;20574;-72
2023/03/29 03:59:53;;;;;;;0.80;0.80;;;-2.10;99.90;;;;;;5094659;28;20192;-72
2023/03/29 04:02:19;;;;;;;0.70;0.70;;;-2.10;99.90;;;;;;5072175;28;20248;-72
2023/03/29 04:04:45;;;;;;;0.70;0.70;;;-2.00;99.90;;;;;;5074250;28;20193;-73
2023/03/29 04:07:13;;;;;;;0.70;0.70;;;-2.10;99.90;;;;;;5072701;28;20227;-74
2023/03/29 04:09:38;;;;;;;0.70;0.70;;;-2.10;99.90;;;;;;5074053;28;20196;-73
2023/03/29 04:12:04;;;;;;;0.70;0.70;;;-2.10;99.90;;;;;;5074121;28;20697;-73
2023/03/29 04:14:31;;;;;;;0.75;0.75;;;-2.10;99.90;;;;;;5073883;28;20309;-74
2023/03/29 04:16:56;;;;;;;0.60;0.60;;;-2.20;99.90;;;;;;5074045;28;20292;-72
2023/03/29 04:19:22;;;;;;;0.73;0.73;;;-2.20;99.90;;;;;;5073831;28;20272;-73
2023/03/29 04:21:48;;;;;;;0.80;0.80;;;-2.20;99.90;;;;;;5072497;28;20193;-73
2023/03/29 04:24:16;;;;;;;0.70;0.70;;;-2.30;99.90;;;;;;5072594;28;20197;-73
2023/03/29 04:26:42;;;;;;;0.65;0.65;;;-2.30;99.90;;;;;;5073293;28;20211;-70
2023/03/29 04:29:08;;;;;;;0.80;0.80;;;-2.30;99.90;;;;;;5072514;28;20693;-71
2023/03/29 04:31:33;;;;;;;0.80;0.80;;;-2.40;99.90;;;;;;5073560;28;20193;-70
2023/03/29 04:33:59;;;;;;;0.70;0.70;;;-2.40;99.90;;;;;;5073752;28;20196;-73
2023/03/29 04:36:25;;;;;;;0.60;0.60;;;-2.50;99.90;;;;;;5071484;28;20679;-71
2023/03/29 04:38:53;;;;;;;0.80;0.80;;;-2.50;99.90;;;;;;5073600;28;20207;-70
2023/03/29 04:41:19;;;;;;;0.70;0.70;;;-2.50;99.90;;;;;;5073407;28;20197;-70
2023/03/29 04:43:46;;;;;;;0.60;0.60;;;-2.50;99.90;;;;;;5073376;28;20193;-69
2023/03/29 04:46:13;;;;;;;0.70;0.70;;;-2.50;99.90;;;;;;5073143;28;20200;-69
2023/03/29 04:48:39;;;;;;;0.52;0.52;;;-2.50;99.90;;;;;;5073445;28;20662;-70
2023/03/29 04:51:05;;;;;;;0.70;0.70;;;-2.60;99.90;;;;;;5073494;28;20200;-70
2023/03/29 04:53:31;;;;;;;0.70;0.70;;;-2.60;99.90;;;;;;5073246;28;20193;-70
2023/03/29 04:55:58;;;;;;;0.60;0.60;;;-2.60;99.90;;;;;;5073476;28;20246;-70
2023/03/29 04:58:25;;;;;;;0.90;0.90;;;-2.60;99.90;;;;;;5071812;28;20621;-71
2023/03/29 05:00:53;;;;;;;0.70;0.70;;;-2.60;99.90;;;;;;5073333;28;20624;-71
2023/03/29 05:03:20;;;;;;;0.80;0.80;;;-2.70;99.90;;;;;;5071319;28;20225;-71
2023/03/29 05:05:46;;;;;;;0.70;0.70;;;-2.70;99.90;;;;;;5073192;28;20193;-69
2023/03/29 05:08:12;;;;;;;0.75;0.75;;;-2.70;99.90;;;;;;5071820;28;20257;-70
2023/03/29 05:10:42;;;;;;;0.80;0.80;;;-2.80;99.90;;;;;;5071789;28;20191;-73
2023/03/29 05:13:08;;;;;;;0.85;0.85;;;-2.80;99.90;;;;;;5073187;28;20602;-73
2023/03/29 05:15:35;;;;;;;0.70;0.70;;;-2.80;99.90;;;;;;5072886;28;20601;-72
2023/03/29 05:18:01;;;;;;;0.60;0.60;;;-2.80;99.90;;;;;;5072620;28;20200;-72
2023/03/29 05:20:28;;;;;;;0.80;0.80;;;-2.80;99.90;;;;;;5072905;28;20720;-71
2023/03/29 05:22:54;;;;;;;0.80;0.80;;;-2.80;99.90;;;;;;5059610;28;20601;-73
2023/03/29 05:25:21;;;;;;;0.70;0.70;;;-2.80;99.90;;;;;;5052599;28;20723;-73
2023/03/29 05:27:47;;;;;;;0.60;0.60;;;-2.80;99.90;;;;;;5051580;28;20213;-73
2023/03/29 05:30:14;;;;;;;0.80;0.80;;;-2.80;99.90;;;;;;5052943;28;20679;-73
2023/03/29 05:32:41;;;;;;;0.80;0.80;;;-2.80;99.90;;;;;;5052604;28;20212;-74
2023/03/29 05:35:07;;;;;;;0.88;0.88;;;-2.80;99.90;;;;;;5052937;28;20190;-73
2023/03/29 05:37:33;;;;;;;0.88;0.88;;;-2.70;99.90;;;;;;5052674;28;20774;-73
2023/03/29 05:40:00;;;;;;;0.85;0.85;;;-2.70;99.90;;;;;;5048118;28;20202;-73
2023/03/29 05:42:26;;;;;;;0.80;0.80;;;-2.70;99.90;;;;;;5032690;28;20602;-73
2023/03/29 05:44:53;;;;;;;1.08;1.05;;;-2.70;99.90;;;;;;5032959;28;20719;-72
2023/03/29 05:47:19;;;;;;;0.80;0.80;;;-2.70;99.90;;;;;;5032756;28;20293;-73
2023/03/29 05:49:45;;;;;;;0.70;0.70;;;-2.70;99.90;;;;;;5032900;28;20665;-73
2023/03/29 05:52:11;;;;;;;0.80;0.80;;;-2.70;99.90;;;;;;5032830;28;20260;-72
2023/03/29 05:54:38;;;;;;;0.80;0.80;;;-2.70;99.90;;;;;;5034616;28;20224;-73
2023/03/29 05:57:03;;;;;;;0.77;0.77;;;-2.70;99.90;;;;;;5072296;28;20202;-73
2023/03/29 05:59:29;;;;;;;0.80;0.80;;;-2.70;99.90;;;;;;5076537;28;20197;-72
2023/03/29 06:01:55;;;;;;;0.60;0.60;;;-2.70;99.90;;;;;;5076801;28;20228;-72
2023/03/29 06:04:21;;;;;;;0.70;0.70;;;-2.60;99.90;;;;;;5078434;28;20382;-73
2023/03/29 06:06:48;;;;;;;0.70;0.70;;;-2.60;99.90;;;;;;5078586;28;20232;-71
2023/03/29 06:09:14;;;;;;;0.80;0.80;;;-2.70;99.90;;;;;;5096704;28;20188;-72
2023/03/29 06:11:40;;;;;;;0.90;0.90;;;-2.70;99.90;;;;;;5096521;28;20184;-73
2023/03/29 06:14:06;;;;;;;0.70;0.70;;;-2.70;99.90;;;;;;5096680;28;20201;-72
2023/03/29 06:16:32;;;;;;;0.80;0.80;;;-2.70;99.90;;;;;;5096477;28;20213;-72
2023/03/29 06:18:58;;;;;;;0.80;0.80;;;-2.70;99.90;;;;;;5096819;28;20282;-72
2023/03/29 06:21:25;;;;;;;0.70;0.70;;;-2.70;99.90;;;;;;5096242;28;20192;-72
2023/03/29 06:23:51;;;;;;;0.60;0.60;;;-2.80;99.90;;;;;;5078198;28;20265;-72
2023/03/29 06:26:17;;;;;;;0.63;0.63;;;-2.70;99.90;;;;;;5096019;28;20196;-72
2023/03/29 06:28:43;;;;;;;30.00;2.78;;;-2.70;99.90;;;;;;5096571;28;20184;-73
2023/03/29 06:31:09;;;;;;;0.90;0.90;;;-2.70;99.90;;;;;;5096412;28;20188;-72
2023/03/29 06:33:36;;;;;;;0.77;0.77;;;-2.70;99.90;;;;;;5077454;28;20198;-72
2023/03/29 06:36:03;;;;;;;0.70;0.70;;;-2.80;99.90;;;;;;5077386;28;20200;-73
2023/03/29 06:38:29;;;;;;;0.63;0.63;;;-2.80;99.90;;;;;;5096015;28;20595;-72
2023/03/29 06:41:04;;;;;;;0.80;0.80;;;-2.70;99.90;;;;;;5065239;28;20193;-72
2023/03/29 06:43:31;;;;;;;0.80;0.80;;;-2.60;99.90;;;;;;5075621;28;20180;-71
2023/03/29 06:45:57;;;;;;;0.75;0.75;;;-2.60;99.90;;;;;;5075727;28;20276;-72
2023/03/29 06:48:23;;;;;;;0.82;0.82;;;-2.60;99.90;;;;;;5075468;28;20271;-72
2023/03/29 06:50:49;;;;;;;0.95;0.95;;;-2.50;99.90;;;;;;5076827;28;20303;-72
2023/03/29 06:53:15;;;;;;;0.90;0.90;;;-2.50;99.90;;;;;;5095779;28;20188;-72
2023/03/29 06:55:41;;;;;;;0.70;0.70;;;-2.50;99.90;;;;;;5095775;28;20214;-72
2023/03/29 06:58:08;;;;;;;0.80;0.80;;;-2.40;99.90;;;;;;5077717;28;20197;-73
2023/03/29 07:00:36;;;;;;;0.70;0.70;;;-2.40;99.90;;;;;;5095494;28;20301;-73
2023/03/29 07:03:05;;;;;;;0.73;0.73;;;-2.30;99.90;;;;;;5095368;28;20228;-72
2023/03/29 07:05:31;;;;;;;0.70;0.70;;;-2.30;99.90;;;;;;5095379;28;20196;-72
2023/03/29 07:08:10;;;;;;;0.70;0.70;;;-2.30;99.90;;;;;;5095064;28;20219;-72
2023/03/29 07:10:41;;;;;;;0.70;0.70;;;-2.20;99.90;;;;;;5095288;28;20275;-72
2023/03/29 07:13:11;;;;;;;0.70;0.70;;;-2.20;99.90;;;;;;5095330;28;20184;-72
2023/03/29 07:15:36;;;;;;;0.70;0.70;;;-2.20;99.90;;;;;;5095088;28;20184;-72
2023/03/29 07:18:03;;;;;;;0.73;0.73;;;-2.20;99.90;;;;;;5095304;28;20215;-72
2023/03/29 07:20:29;;;;;;;0.70;0.70;;;-2.20;99.90;;;;;;5095124;28;20188;-72
2023/03/29 07:22:56;;;;;;;0.75;0.75;;;-2.10;99.90;;;;;;5095281;28;20318;-73
2023/03/29 07:25:23;;;;;;;0.80;0.80;;;-2.00;99.90;;;;;;5094076;28;20284;-72
2023/03/29 07:27:49;;;;;;;0.70;0.70;;;-2.00;99.90;;;;;;5095044;28;20733;-72
2023/03/29 07:30:24;;;;;;;0.65;0.65;;;-1.90;99.90;;;;;;5095175;28;20192;-72
2023/03/29 07:32:51;;;;;;;0.70;0.70;;;-1.90;99.90;;;;;;5095044;28;20320;-72
2023/03/29 07:35:17;;;;;;;0.60;0.60;;;-1.90;99.90;;;;;;5094868;28;20188;-72
2023/03/29 07:37:44;;;;;;;0.70;0.70;;;-1.80;99.90;;;;;;5095010;28;20188;-72
2023/03/29 07:40:15;;;;;;;0.70;0.70;;;-1.80;99.90;;;;;;5088464;28;20247;-72
2023/03/29 07:42:46;;;;;;;0.70;0.70;;;-1.80;99.90;;;;;;5074421;28;20200;-72
2023/03/29 07:45:15;;;;;;;1.15;1.05;;;-1.80;99.90;;;;;;5056585;28;20200;-71
2023/03/29 07:47:41;;;;;;;0.70;0.70;;;-1.90;99.90;;;;;;5080464;28;20683;-72
2023/03/29 07:50:08;;;;;;;0.70;0.70;;;-2.00;99.90;;;;;;5094672;28;20245;-71
2023/03/29 07:52:37;;;;;;;0.90;0.90;;;-2.00;99.90;;;;;;5094439;28;20192;-72
2023/03/29 07:55:09;;;;;;;0.70;0.70;;;-2.00;99.90;;;;;;5094652;28;20206;-72
2023/03/29 07:57:35;;;;;;;0.70;0.70;;;-1.90;99.90;;;;;;5094349;28;20541;-72
2023/03/29 08:00:13;;;;;;;0.70;0.70;;;-1.80;99.90;;;;;;5076384;28;20295;-72
2023/03/29 08:02:40;;;;;;;0.80;0.80;;;-1.90;99.90;;;;;;5094079;28;20227;-72
2023/03/29 08:05:06;;;;;;;0.73;0.73;;;-2.00;99.90;;;;;;5094211;28;20203;-72
2023/03/29 08:07:32;;;;;;;0.75;0.75;;;-2.00;99.90;;;;;;5094107;28;20675;-72
2023/03/29 08:09:58;;;;;;;0.70;0.70;;;-1.90;99.90;;;;;;5094401;28;20192;-72
2023/03/29 08:12:24;;;;;;;0.70;0.70;;;-1.90;99.90;;;;;;5093839;28;20195;-72
2023/03/29 08:14:49;;;;;;;0.60;0.60;;;-1.80;99.90;;;;;;5093625;28;20216;-71
2023/03/29 08:17:15;;;;;;;0.73;0.73;;;-1.70;99.90;;;;;;5094314;28;20196;-71
2023/03/29 08:19:41;;;;;;;0.70;0.70;;;-1.70;99.90;;;;;;5093636;28;20199;-71
2023/03/29 08:22:07;;;;;;;0.73;0.73;;;-1.70;99.90;;;;;;5075507;28;20200;-72
2023/03/29 08:24:32;;;;;;;0.70;0.70;;;-1.60;99.90;;;;;;5075420;28;20287;-72
2023/03/29 08:26:58;;;;;;;0.70;0.70;;;-1.60;99.90;;;;;;5093956;28;20599;-72
2023/03/29 08:29:24;;;;;;;0.60;0.60;;;-1.50;99.90;;;;;;5093635;28;20188;-70
2023/03/29 08:31:49;;;;;;;0.70;0.70;;;-1.50;99.90;;;;;;5093885;28;20191;-71
2023/03/29 08:34:15;;;;;;;0.80;0.80;;;-1.60;99.90;;;;;;5093909;28;20184;-71
2023/03/29 08:36:41;;;;;;;0.70;0.70;;;-1.50;99.90;;;;;;5093652;28;20599;-71
2023/03/29 08:39:07;;;;;;;0.90;0.90;;;-1.40;99.90;;;;;;5093630;28;20200;-72
2023/03/29 08:42:02;;;;;;;0.60;0.60;;;-1.30;99.90;;;;;;5057531;28;20199;-71
2023/03/29 08:44:51;;;;;;;0.75;0.75;;;-1.10;99.90;;;;;;5083859;28;20666;-72
2023/03/29 08:47:35;;;;;;;0.55;0.55;;;-1.10;99.90;;;;;;5093503;28;20214;-71
2023/03/29 08:50:01;;;;;;;0.60;0.60;;;-1.00;99.90;;;;;;5093659;28;20253;-72
2023/03/29 08:52:30;;;;;;;0.60;0.60;;;-1.00;99.90;;;;;;5075224;28;20192;-72
2023/03/29 08:54:58;;;;;;;0.70;0.70;;;-0.80;99.90;;;;;;5093454;28;20210;-72
2023/03/29 08:57:31;;;;;;;0.60;0.60;;;-0.80;99.90;;;;;;5093062;28;20221;-71
2023/03/29 09:00:01;;;;;;;0.80;0.80;;;-0.80;99.90;;;;;;5075386;28;20203;-72
2023/03/29 09:02:32;;;;;;;0.60;0.60;;;-0.80;99.90;;;;;;5092713;28;20305;-72
2023/03/29 09:05:12;;;;;;;0.80;0.80;;;-0.90;99.90;;;;;;5093546;28;20196;-71
2023/03/29 09:07:37;;;;;;;1.83;1.27;;;-0.90;99.90;;;;;;5092937;28;20246;-72
2023/03/29 09:10:03;;;;;;;0.60;0.60;;;-0.70;99.90;;;;;;5093245;28;20269;-72
2023/03/29 09:12:48;;;;;;;0.60;0.60;;;-0.70;99.90;;;;;;5093090;28;20188;-71
2023/03/29 09:15:14;;;;;;;3.63;1.35;;;-0.70;99.90;;;;;;5075350;28;20200;-72
2023/03/29 09:18:15;;;;;;;0.68;0.68;;;-0.70;99.90;;;;;;5074975;28;20227;-72
2023/03/29 09:21:00;;;;;;;1.25;1.15;;;-0.60;99.90;;;;;;5092882;28;20696;-72
2023/03/29 09:23:38;;;;;;;0.70;0.70;;;-0.50;99.90;;;;;;5072625;28;20185;-72
2023/03/29 09:26:17;;;;;;;0.55;0.55;;;-0.60;99.90;;;;;;5086957;28;20659;-72
2023/03/29 09:29:00;;;;;;;0.70;0.70;;;-0.50;99.90;;;;;;5074698;28;20685;-72
2023/03/29 09:31:34;;;;;;;1.13;1.13;;;-0.60;99.90;;;;;;5093693;28;20184;-71
2023/03/29 09:34:21;;;;;;;1.13;1.02;;;-0.40;99.90;;;;;;5097423;28;20681;-71
2023/03/29 09:37:05;;;;;;;0.70;0.70;;;-0.30;99.90;;;;;;5097147;28;20658;-72
2023/03/29 09:39:31;;;;;;;0.80;0.80;;;-0.20;99.90;;;;;;5096660;28;20275;-72
2023/03/29 09:42:07;;;;;;;0.70;0.70;;;-0.10;99.90;;;;;;5097286;28;20219;-72
2023/03/29 09:44:42;;;;;;;0.70;0.70;;;-0.30;99.90;;;;;;5096930;28;20192;-71
2023/03/29 09:47:31;;;;;;;0.70;0.70;;;-0.30;99.90;;;;;;5079079;28;20638;-71
2023/03/29 09:50:12;;;;;;;1.85;1.60;;;-0.30;99.90;;;;;;5078823;28;20282;-72
2023/03/29 09:52:38;;;;;;;1.05;1.05;;;-0.10;99.90;;;;;;5096642;28;20187;-72
2023/03/29 09:55:05;;;;;;;0.60;0.60;;;-0.30;99.90;;;;;;5096816;28;20249;-72
2023/03/29 09:57:31;;;;;;;0.65;0.65;;;-0.20;99.90;;;;;;5096606;28;20261;-73
2023/03/29 10:00:00;;;;;;;0.68;0.68;;;-0.10;99.90;;;;;;5096828;28;20196;-73
2023/03/29 10:02:30;;;;;;;0.70;0.70;;;0.00;99.90;;;;;;5074472;28;20273;-72
2023/03/29 10:04:59;;;;;;;0.60;0.60;;;-0.10;99.90;;;;;;5056636;28;20311;-72
2023/03/29 10:07:43;;;;;;;0.70;0.70;;;-0.20;99.90;;;;;;5056082;28;20205;-72
2023/03/29 10:10:20;;;;;;;0.70;0.70;;;-0.20;99.90;;;;;;5055034;28;20208;-72
2023/03/29 10:12:49;;;;;;;0.60;0.60;;;0.00;99.90;;;;;;5056257;28;20272;-72
2023/03/29 10:15:16;;;;;;;0.70;0.70;;;-0.10;99.90;;;;;;5056136;28;20648;-72
2023/03/29 10:17:44;;;;;;;0.70;0.70;;;0.10;99.90;;;;;;5056125;28;20201;-73
2023/03/29 10:20:15;;;;;;;0.70;0.70;;;-0.10;99.90;;;;;;5056124;28;20196;-72
2023/03/29 10:22:53;;;;;;;0.93;0.82;;;0.20;99.90;;;;;;5055797;28;20205;-72
2023/03/29 10:25:24;;;;;;;0.60;0.60;;;0.40;99.90;;;;;;5051054;28;20194;-73
2023/03/29 10:27:50;;;;;;;0.70;0.70;;;0.50;99.90;;;;;;5051490;28;20197;-73
2023/03/29 10:30:22;;;;;;;0.70;0.70;;;0.50;99.90;;;;;;5036116;28;20195;-71
2023/03/29 10:32:55;;;;;;;0.70;0.70;;;0.30;99.90;;;;;;5035980;28;20198;-72
2023/03/29 10:35:37;;;;;;;0.70;0.70;;;0.20;99.90;;;;;;5051071;28;20282;-72
2023/03/29 10:38:08;;;;;;;0.60;0.60;;;0.30;99.90;;;;;;5074512;28;20209;-72
2023/03/29 10:40:39;;;;;;;0.75;0.75;;;0.40;99.90;;;;;;5065782;28;20205;-72
2023/03/29 10:43:12;;;;;;;0.60;0.60;;;0.50;99.90;;;;;;5053513;28;20669;-72
2023/03/29 10:45:39;;;;;;;0.50;0.50;;;0.50;99.90;;;;;;5053689;28;20229;-71
2023/03/29 10:48:06;;;;;;;0.70;0.70;;;0.50;99.90;;;;;;5055457;28;20205;-72
2023/03/29 10:50:36;;;;;;;0.70;0.70;;;0.60;99.90;;;;;;5054211;28;20206;-73
2023/03/29 10:53:14;;;;;;;0.60;0.60;;;0.70;99.90;;;;;;5055575;28;20194;-72
2023/03/29 10:55:48;;;;;;;0.57;0.57;;;0.70;99.90;;;;;;5053927;28;20193;-72
2023/03/29 10:58:35;;;;;;;0.70;0.70;;;0.80;99.90;;;;;;5054218;28;20743;-72
2023/03/29 11:01:01;;;;;;;0.70;0.70;;;0.90;99.90;;;;;;5053837;28;20221;-72
2023/03/29 11:04:00;;;;;;;0.57;0.57;;;0.70;99.90;;;;;;5066353;28;20598;-72
2023/03/29 11:06:35;;;;;;;0.60;0.60;;;0.80;99.90;;;;;;5074396;28;20308;-73
2023/03/29 11:09:11;;;;;;;0.60;0.60;;;1.00;99.90;;;;;;5074630;28;20254;-72
2023/03/29 11:12:00;;;;;;;0.90;0.90;;;0.70;99.90;;;;;;5074429;28;20193;-73
2023/03/29 11:14:37;;;;;;;0.98;0.98;;;0.60;99.90;;;;;;5074966;28;20197;-73
2023/03/29 11:17:27;;;;;;;0.50;0.50;;;0.80;99.90;;;;;;5073883;28;20197;-73
2023/03/29 11:20:02;;;;;;;0.70;0.70;;;1.10;99.90;;;;;;5075075;28;20197;-72
2023/03/29 11:22:31;;;;;;;0.63;0.63;;;1.20;99.90;;;;;;5073634;28;20638;-72
2023/03/29 11:25:25;;;;;;;0.80;0.80;;;1.20;99.90;;;;;;5069890;28;20657;-72
2023/03/29 11:28:18;;;;;;;0.70;0.70;;;1.30;99.90;;;;;;5053568;28;20296;-72
2023/03/29 11:30:46;;;;;;;1.00;0.98;;;1.20;99.90;;;;;;5070217;28;20672;-71
2023/03/29 11:33:48;;;;;;;0.90;0.90;;;1.30;99.90;;;;;;5065229;28;20204;-71
2023/03/29 11:36:23;;;;;;;0.80;0.80;;;1.20;99.90;;;;;;5074680;28;20191;-72
2023/03/29 11:39:15;;;;;;;0.60;0.60;;;1.30;99.90;;;;;;5074798;28;20307;-72
2023/03/29 11:41:45;;;;;;;0.65;0.65;;;1.20;99.90;;;;;;5050333;28;20567;-71
2023/03/29 11:44:28;;;;;;;0.82;0.82;;;1.10;99.90;;;;;;5074537;28;20564;-72
2023/03/29 11:47:07;;;;;;;1.45;1.15;;;0.70;99.90;;;;;;5074331;28;20281;-71
2023/03/29 11:49:43;;;;;;;0.75;0.75;;;0.70;99.90;;;;;;5073069;28;20193;-72
2023/03/29 11:52:31;;;;;;;0.80;0.80;;;0.80;99.90;;;;;;5074224;28;20208;-72
2023/03/29 11:55:15;;;;;;;0.77;0.77;;;0.90;99.90;;;;;;5073222;28;20672;-72
2023/03/29 11:57:51;;;;;;;0.68;0.68;;;1.00;99.90;;;;;;5053997;28;20204;-72
2023/03/29 12:00:26;;;;;;;0.50;0.50;;;1.10;99.90;;;;;;5054145;28;20211;-71
2023/03/29 12:03:11;;;;;;;0.70;0.70;;;1.00;99.90;;;;;;5061803;28;20248;-71
2023/03/29 12:06:12;;;;;;;0.70;0.70;;;1.00;99.90;;;;;;5073963;28;20199;-72
2023/03/29 12:09:00;;;;;;;0.70;0.70;;;1.10;99.90;;;;;;5055937;28;20662;-72
2023/03/29 12:11:37;;;;;;;0.63;0.63;;;1.20;99.90;;;;;;5089036;28;20192;-72
2023/03/29 12:14:15;;;;;;;0.70;0.70;;;1.10;99.90;;;;;;5075640;28;20291;-73
2023/03/29 12:16:55;;;;;;;0.60;0.60;;;1.00;99.90;;;;;;5094003;28;20646;-71
2023/03/29 12:19:34;;;;;;;0.70;0.70;;;1.20;99.90;;;;;;5093946;28;20223;-72
2023/03/29 12:22:00;;;;;;;0.70;0.70;;;1.10;99.90;;;;;;5093592;28;20190;-72
2023/03/29 12:24:31;;;;;;;0.47;0.47;;;1.10;99.90;;;;;;5092306;28;20188;-73
2023/03/29 12:27:02;;;;;;;0.60;0.60;;;1.30;99.90;;;;;;5071773;28;20216;-72
2023/03/29 12:29:34;;;;;;;0.57;0.57;;;1.30;99.90;;;;;;5084440;28;20200;-73
2023/03/29 12:32:22;;;;;;;0.60;0.60;;;1.20;99.90;;;;;;5075886;28;20283;-72
2023/03/29 12:34:53;;;;;;;0.93;0.73;;;1.10;99.90;;;;;;5093099;28;20192;-75
2023/03/29 12:37:22;;;;;;;0.60;0.60;;;1.00;99.90;;;;;;5092840;28;20196;-76
2023/03/29 12:39:50;;;;;;;0.60;0.60;;;1.00;99.90;;;;;;5093873;28;20196;-75
2023/03/29 12:42:19;;;;;;;0.70;0.70;;;1.20;99.90;;;;;;5093614;28;20192;-74
2023/03/29 12:44:49;;;;;;;0.60;0.60;;;1.20;99.90;;;;;;5093697;28;20201;-73
2023/03/29 12:47:20;;;;;;;0.70;0.70;;;1.30;99.90;;;;;;5093533;28;20227;-73
2023/03/29 12:49:46;;;;;;;0.60;0.60;;;1.50;99.90;;;;;;5093680;28;20273;-73
2023/03/29 12:52:32;;;;;;;0.70;0.70;;;1.30;99.90;;;;;;5093512;28;20192;-72
2023/03/29 12:55:15;;;;;;;0.70;0.70;;;1.20;99.90;;;;;;5093348;28;20192;-72
2023/03/29 12:57:46;;;;;;;0.70;0.70;;;0.90;99.90;;;;;;5072889;28;20196;-73
2023/03/29 13:00:20;;;;;;;0.50;0.50;;;1.00;99.90;;;;;;5073248;28;20682;-73
2023/03/29 13:03:16;;;;;;;0.60;0.60;;;1.00;99.90;;;;;;5072773;28;20235;-73
2023/03/29 13:05:43;;;;;;;0.60;0.60;;;1.10;99.90;;;;;;5072988;28;20511;-73
2023/03/29 13:08:26;;;;;;;0.70;0.70;;;1.00;99.90;;;;;;5092602;28;20208;-72